Time;durP1;ratioP1;P1;durP2;ratioP2;P2;SDS_P1;SDS_P2;PMS_P1;PMS_P2;Temp;Humidity;BMP_temperature;BMP_pressure;BME280_temperature;BME280_humidity;BME280_pressure;Samples;Min_cycle;Max_cycle;Signal;HPM_P1;HPM_P2
2023/08/03 00:00:40;;;;;;;85.30;52.75;;;19.10;86.80;;;;;;4941274;28;89753;-41
2023/08/03 00:03:09;;;;;;;83.38;52.67;;;19.00;88.20;;;;;;4910186;28;92414;-39
2023/08/03 00:05:35;;;;;;;87.07;53.15;;;19.10;87.80;;;;;;4943095;28;91638;-38
2023/08/03 00:08:00;;;;;;;84.53;52.55;;;19.10;86.90;;;;;;4943298;28;89788;-40
2023/08/03 00:10:26;;;;;;;86.13;53.25;;;19.10;88.90;;;;;;4943387;28;90496;-48
2023/08/03 00:12:52;;;;;;;84.65;53.28;;;19.10;86.70;;;;;;4984020;22;90060;-83
2023/08/03 00:15:18;;;;;;;83.40;52.80;;;19.10;87.00;;;;;;5018461;27;89735;-83
2023/08/03 00:17:44;;;;;;;83.70;52.97;;;19.00;88.10;;;;;;5014274;27;92503;-84
2023/08/03 00:20:10;;;;;;;86.95;53.05;;;19.10;88.40;;;;;;5011587;27;91971;-84
2023/08/03 00:22:36;;;;;;;84.13;53.15;;;19.10;86.90;;;;;;5012325;28;89997;-83
2023/08/03 00:25:03;;;;;;;87.07;52.97;;;19.10;87.40;;;;;;5012801;27;89268;-84
2023/08/03 00:27:29;;;;;;;84.55;53.08;;;19.10;88.00;;;;;;5017744;28;89096;-83
2023/08/03 00:29:55;;;;;;;84.40;52.50;;;19.10;87.00;;;;;;5010917;27;90347;-85
2023/08/03 00:32:20;;;;;;;84.43;52.85;;;19.10;86.70;;;;;;5011586;27;89785;-84
2023/08/03 00:34:46;;;;;;;84.72;52.83;;;19.10;88.20;;;;;;5014167;27;92541;-84
2023/08/03 00:37:12;;;;;;;85.43;52.83;;;19.10;87.50;;;;;;4988238;28;88729;-83
2023/08/03 00:39:38;;;;;;;83.78;52.92;;;19.10;86.70;;;;;;4982313;28;92729;-84
2023/08/03 00:42:07;;;;;;;86.75;52.95;;;19.00;88.80;;;;;;4981158;28;92798;-84
2023/08/03 00:44:33;;;;;;;84.07;52.85;;;19.00;88.40;;;;;;4998973;28;90113;-84
2023/08/03 00:46:59;;;;;;;84.93;52.65;;;19.10;88.90;;;;;;5000400;28;93351;-83
2023/08/03 00:49:30;;;;;;;85.38;53.03;;;19.10;87.40;;;;;;4984638;28;92865;-84
2023/08/03 00:51:56;;;;;;;84.65;53.15;;;19.00;88.60;;;;;;4983001;28;92981;-84
2023/08/03 00:54:22;;;;;;;82.63;52.85;;;19.00;89.60;;;;;;4989093;28;90943;-83
2023/08/03 00:56:48;;;;;;;88.63;52.80;;;19.00;88.40;;;;;;4983922;28;89536;-83
2023/08/03 00:59:14;;;;;;;83.93;52.88;;;19.00;88.90;;;;;;4995996;28;89535;-85
2023/08/03 01:01:41;;;;;;;83.20;53.08;;;19.00;88.50;;;;;;4982425;28;92176;-83
2023/08/03 01:04:06;;;;;;;84.13;52.42;;;19.00;88.60;;;;;;4998950;28;89793;-83
2023/08/03 01:06:32;;;;;;;84.28;52.53;;;19.00;89.70;;;;;;5000977;28;90342;-84
2023/08/03 01:08:59;;;;;;;83.93;52.63;;;19.00;89.20;;;;;;4999101;28;91987;-84
2023/08/03 01:11:28;;;;;;;84.85;52.95;;;18.90;87.40;;;;;;4982835;28;95327;-84
2023/08/03 01:13:55;;;;;;;85.57;52.78;;;19.00;89.80;;;;;;4999203;28;90740;-84
2023/08/03 01:16:21;;;;;;;81.82;52.53;;;18.90;87.10;;;;;;4980851;28;89792;-84
2023/08/03 01:18:46;;;;;;;84.35;52.70;;;19.00;87.90;;;;;;4979392;28;92845;-83
2023/08/03 01:21:15;;;;;;;85.32;52.78;;;19.00;87.30;;;;;;4999254;28;90973;-84
2023/08/03 01:23:40;;;;;;;84.70;52.88;;;19.00;87.60;;;;;;4980978;28;90099;-84
2023/08/03 01:26:06;;;;;;;84.00;52.95;;;19.00;87.90;;;;;;4986089;28;88667;-84
2023/08/03 01:28:31;;;;;;;83.85;52.63;;;18.90;88.10;;;;;;5000701;28;90370;-83
2023/08/03 01:30:57;;;;;;;83.03;53.15;;;19.00;88.80;;;;;;4998418;28;92137;-84
2023/08/03 01:33:23;;;;;;;84.80;52.72;;;19.00;88.50;;;;;;4996277;28;90284;-84
2023/08/03 01:35:51;;;;;;;84.70;52.80;;;19.00;86.80;;;;;;4984418;28;89965;-83
2023/08/03 01:38:16;;;;;;;83.53;52.67;;;19.00;88.70;;;;;;4998825;28;90177;-84
2023/08/03 01:40:42;;;;;;;86.10;52.78;;;18.90;87.40;;;;;;4983155;28;91509;-84
2023/08/03 01:43:08;;;;;;;83.95;52.60;;;19.00;86.60;;;;;;4977946;28;90741;-84
2023/08/03 01:45:34;;;;;;;83.93;52.78;;;18.90;88.00;;;;;;4998880;28;92549;-84
2023/08/03 01:47:59;;;;;;;82.95;52.97;;;18.90;86.80;;;;;;5000643;28;90636;-84
2023/08/03 01:50:25;;;;;;;82.93;52.70;;;19.00;86.70;;;;;;5001077;28;90276;-84
2023/08/03 01:52:51;;;;;;;82.43;52.45;;;19.00;88.50;;;;;;4987502;28;89223;-84
2023/08/03 01:55:16;;;;;;;84.55;52.55;;;19.00;86.60;;;;;;5004104;28;90050;-84
2023/08/03 01:57:42;;;;;;;82.97;52.53;;;19.00;88.10;;;;;;5005217;28;91483;-84
2023/08/03 02:00:08;;;;;;;83.97;52.58;;;19.00;86.80;;;;;;5001849;28;92462;-83
2023/08/03 02:02:33;;;;;;;82.35;52.70;;;18.90;87.50;;;;;;5003756;28;89087;-84
2023/08/03 02:04:59;;;;;;;82.38;53.08;;;19.00;86.90;;;;;;4984042;28;89275;-84
2023/08/03 02:07:41;;;;;;;83.88;52.72;;;19.00;88.20;;;;;;5004440;28;90082;-84
2023/08/03 02:10:08;;;;;;;81.75;52.33;;;19.00;87.30;;;;;;4980111;28;93422;-84
2023/08/03 02:12:33;;;;;;;85.15;52.55;;;19.00;87.60;;;;;;5003938;28;89189;-84
2023/08/03 02:14:59;;;;;;;85.03;52.80;;;19.00;88.70;;;;;;5002784;28;88912;-84
2023/08/03 02:17:26;;;;;;;83.70;52.88;;;19.00;86.70;;;;;;5003107;28;92013;-84
2023/08/03 02:19:52;;;;;;;83.47;52.75;;;19.00;87.00;;;;;;4999354;28;89590;-84
2023/08/03 02:22:17;;;;;;;84.60;52.63;;;18.90;87.50;;;;;;4983878;28;90428;-85
2023/08/03 02:24:43;;;;;;;83.15;52.63;;;19.00;86.70;;;;;;5004178;28;90424;-86
2023/08/03 02:27:09;;;;;;;85.22;52.58;;;19.00;88.00;;;;;;4984179;28;92995;-85
2023/08/03 02:29:34;;;;;;;84.47;52.97;;;19.00;88.70;;;;;;5000825;28;89844;-84
2023/08/03 02:32:00;;;;;;;84.05;52.65;;;19.00;89.20;;;;;;5002615;28;90899;-84
2023/08/03 02:34:25;;;;;;;84.03;53.30;;;19.00;88.80;;;;;;5004511;28;89648;-84
2023/08/03 02:36:51;;;;;;;83.20;52.70;;;19.00;87.00;;;;;;5003595;28;90002;-84
2023/08/03 02:39:16;;;;;;;83.03;52.80;;;18.90;87.80;;;;;;5003348;28;89770;-84
2023/08/03 02:41:42;;;;;;;82.95;52.38;;;18.90;87.10;;;;;;5003820;28;89155;-85
2023/08/03 02:44:07;;;;;;;82.68;52.67;;;19.00;86.40;;;;;;5003219;28;89739;-84
2023/08/03 02:46:33;;;;;;;83.80;53.08;;;19.00;87.90;;;;;;4994578;28;91747;-84
2023/08/03 02:49:00;;;;;;;84.00;52.75;;;18.90;87.80;;;;;;5001685;28;90498;-83
2023/08/03 02:51:26;;;;;;;83.53;52.55;;;18.90;87.10;;;;;;5001313;28;89230;-85
2023/08/03 02:53:51;;;;;;;84.93;53.15;;;19.00;87.10;;;;;;4984883;28;89722;-85
2023/08/03 02:56:17;;;;;;;83.68;52.60;;;19.00;88.60;;;;;;5000966;28;90691;-84
2023/08/03 02:58:42;;;;;;;83.47;52.55;;;19.00;87.60;;;;;;5000556;28;90801;-84
2023/08/03 03:01:08;;;;;;;84.53;53.00;;;19.00;87.70;;;;;;5002533;28;89317;-86
2023/08/03 03:03:34;;;;;;;81.95;52.45;;;19.00;86.50;;;;;;5000294;28;90028;-84
2023/08/03 03:05:59;;;;;;;82.90;52.97;;;19.00;87.40;;;;;;5006526;28;89928;-84
2023/08/03 03:08:25;;;;;;;82.47;52.72;;;18.90;87.30;;;;;;4987073;28;92848;-85
2023/08/03 03:10:50;;;;;;;83.50;52.80;;;18.90;88.40;;;;;;5004040;28;94439;-85
2023/08/03 03:13:16;;;;;;;82.65;52.58;;;19.00;87.10;;;;;;5003223;28;89690;-84
2023/08/03 03:15:41;;;;;;;83.00;52.30;;;18.90;86.50;;;;;;4982694;28;92595;-83
2023/08/03 03:18:07;;;;;;;83.07;52.83;;;18.90;88.50;;;;;;5005219;28;89806;-83
2023/08/03 03:20:33;;;;;;;82.97;52.75;;;18.90;86.40;;;;;;5001835;28;93967;-83
2023/08/03 03:22:58;;;;;;;83.53;52.35;;;19.00;88.00;;;;;;4995645;28;89307;-85
2023/08/03 03:25:24;;;;;;;84.93;52.85;;;18.90;86.30;;;;;;4994148;28;91396;-86
2023/08/03 03:27:49;;;;;;;83.10;52.65;;;19.00;87.80;;;;;;5001685;28;89481;-84
2023/08/03 03:30:16;;;;;;;83.35;52.80;;;18.90;86.80;;;;;;4999563;28;89726;-84
2023/08/03 03:32:43;;;;;;;84.95;52.83;;;18.90;86.60;;;;;;4996764;28;89494;-84
2023/08/03 03:35:08;;;;;;;83.32;52.53;;;18.90;87.50;;;;;;5000505;28;93505;-84
2023/08/03 03:37:34;;;;;;;83.10;52.65;;;18.90;86.90;;;;;;4981677;28;93484;-83
2023/08/03 03:40:00;;;;;;;83.47;52.70;;;18.90;86.50;;;;;;4985439;28;91507;-84
2023/08/03 03:42:25;;;;;;;83.03;52.63;;;18.90;86.70;;;;;;5002436;28;90204;-83
2023/08/03 03:44:51;;;;;;;83.43;52.50;;;18.90;87.10;;;;;;4997562;28;92983;-85
2023/08/03 03:47:16;;;;;;;83.25;52.70;;;18.90;87.80;;;;;;4998542;28;90603;-84
2023/08/03 03:49:42;;;;;;;83.13;52.58;;;18.90;88.40;;;;;;4978454;28;90777;-84
2023/08/03 03:52:08;;;;;;;83.95;52.50;;;18.90;86.60;;;;;;4996892;28;88832;-86
2023/08/03 03:54:34;;;;;;;83.75;52.90;;;18.90;86.00;;;;;;4992912;28;89745;-84
2023/08/03 03:57:00;;;;;;;83.90;52.67;;;18.90;89.80;;;;;;4992658;28;91000;-84
2023/08/03 03:59:26;;;;;;;82.55;52.55;;;18.90;88.00;;;;;;4975267;28;95022;-84
2023/08/03 04:01:52;;;;;;;82.75;52.67;;;18.90;86.40;;;;;;4994773;28;90741;-84
2023/08/03 04:04:18;;;;;;;82.90;52.75;;;18.90;88.10;;;;;;4977906;28;92401;-84
2023/08/03 04:06:43;;;;;;;82.20;52.63;;;18.90;87.10;;;;;;4980342;28;93212;-85
2023/08/03 04:09:09;;;;;;;83.15;52.53;;;18.90;87.30;;;;;;4997548;28;89385;-87
2023/08/03 04:11:35;;;;;;;83.25;52.75;;;18.90;86.70;;;;;;4998237;28;89432;-85
2023/08/03 04:14:00;;;;;;;85.15;52.67;;;18.90;86.60;;;;;;4997024;28;91462;-85
2023/08/03 04:16:26;;;;;;;83.18;52.50;;;18.90;87.20;;;;;;4993568;28;90909;-86
2023/08/03 04:18:51;;;;;;;82.93;52.95;;;18.90;86.30;;;;;;4976084;28;89046;-85
2023/08/03 04:21:17;;;;;;;83.45;52.42;;;18.90;87.50;;;;;;4998281;28;89312;-85
2023/08/03 04:23:42;;;;;;;83.63;52.83;;;18.90;86.50;;;;;;4998304;28;91392;-84
2023/08/03 04:26:08;;;;;;;83.63;52.78;;;18.90;87.10;;;;;;4983956;28;93376;-86
2023/08/03 04:28:34;;;;;;;82.82;52.42;;;18.90;88.30;;;;;;4997746;28;89918;-84
2023/08/03 04:31:00;;;;;;;84.45;52.70;;;18.90;87.90;;;;;;5021621;28;90039;-86
2023/08/03 04:33:25;;;;;;;84.53;52.90;;;18.90;86.60;;;;;;5027749;28;92589;-86
2023/08/03 04:35:51;;;;;;;82.85;52.67;;;18.90;86.90;;;;;;5017035;28;89625;-85
2023/08/03 04:38:16;;;;;;;83.60;52.85;;;18.80;86.90;;;;;;4999153;28;91658;-85
2023/08/03 04:40:42;;;;;;;82.03;52.60;;;18.90;86.70;;;;;;5002375;28;88469;-86
2023/08/03 04:43:08;;;;;;;84.40;53.13;;;18.80;86.90;;;;;;4998264;28;90258;-86
2023/08/03 04:45:34;;;;;;;84.35;52.35;;;18.90;87.30;;;;;;4981448;28;92793;-86
2023/08/03 04:48:00;;;;;;;81.22;52.40;;;18.90;87.50;;;;;;4980715;28;91402;-85
2023/08/03 04:50:26;;;;;;;83.68;52.63;;;18.90;86.50;;;;;;4997394;28;90159;-85
2023/08/03 04:52:51;;;;;;;82.55;52.75;;;18.80;87.00;;;;;;4983660;28;93034;-85
2023/08/03 04:55:17;;;;;;;83.65;52.92;;;18.90;87.80;;;;;;5001568;28;90081;-85
2023/08/03 04:57:44;;;;;;;82.45;52.70;;;18.90;88.80;;;;;;4998151;28;91030;-86
2023/08/03 05:00:10;;;;;;;82.93;52.75;;;18.90;87.30;;;;;;5000556;28;90025;-85
2023/08/03 05:02:35;;;;;;;81.95;52.75;;;18.80;86.80;;;;;;4983921;28;95265;-86
2023/08/03 05:05:01;;;;;;;84.97;52.70;;;18.90;86.60;;;;;;4984176;28;92669;-86
2023/08/03 05:07:27;;;;;;;83.80;52.60;;;18.80;86.70;;;;;;4983653;28;91671;-85
2023/08/03 05:09:53;;;;;;;84.68;52.75;;;18.80;86.80;;;;;;4984190;28;89840;-87
2023/08/03 05:12:19;;;;;;;82.07;52.42;;;18.90;86.30;;;;;;4999040;28;94401;-85
2023/08/03 05:14:45;;;;;;;83.60;52.60;;;18.90;87.50;;;;;;4999221;28;93158;-84
2023/08/03 05:17:10;;;;;;;83.25;52.92;;;18.90;87.70;;;;;;4997243;28;89759;-84
2023/08/03 05:19:36;;;;;;;84.72;52.75;;;18.80;86.50;;;;;;4981396;28;89875;-84
2023/08/03 05:22:02;;;;;;;83.45;52.60;;;18.90;86.90;;;;;;4984876;28;93251;-84
2023/08/03 05:24:27;;;;;;;82.78;52.42;;;18.90;87.30;;;;;;5000187;28;89514;-84
2023/08/03 05:26:53;;;;;;;85.53;52.75;;;18.80;86.90;;;;;;4986437;28;89373;-84
2023/08/03 05:29:19;;;;;;;84.18;52.58;;;18.80;86.70;;;;;;4994099;28;91982;-84
2023/08/03 05:31:48;;;;;;;83.75;53.03;;;18.80;87.30;;;;;;5009240;28;93092;-84
2023/08/03 05:34:14;;;;;;;82.90;52.55;;;18.80;86.80;;;;;;4992456;28;91503;-84
2023/08/03 05:36:40;;;;;;;83.40;52.60;;;18.90;86.80;;;;;;5008280;28;90168;-83
2023/08/03 05:39:08;;;;;;;84.00;52.97;;;18.90;87.00;;;;;;5008996;28;90306;-86
2023/08/03 05:41:33;;;;;;;82.10;52.50;;;18.90;87.50;;;;;;4988495;28;95240;-83
2023/08/03 05:43:59;;;;;;;83.03;52.97;;;18.90;86.60;;;;;;5004153;28;93455;-83
2023/08/03 05:46:30;;;;;;;83.80;52.95;;;18.90;86.70;;;;;;5009492;28;90104;-84
2023/08/03 05:48:56;;;;;;;82.78;52.92;;;18.90;87.20;;;;;;5002054;28;89596;-85
2023/08/03 05:51:26;;;;;;;83.13;53.33;;;18.90;87.30;;;;;;4990281;28;92007;-84
2023/08/03 05:53:53;;;;;;;81.10;52.30;;;18.90;87.80;;;;;;5004914;28;89126;-84
2023/08/03 05:56:23;;;;;;;81.85;52.53;;;18.90;87.00;;;;;;5008518;28;90407;-85
2023/08/03 05:58:50;;;;;;;83.33;52.97;;;18.90;87.10;;;;;;5006659;28;89403;-83
2023/08/03 06:01:20;;;;;;;83.90;53.28;;;18.90;87.00;;;;;;4988522;28;93752;-84
2023/08/03 06:03:46;;;;;;;82.20;53.30;;;18.90;87.70;;;;;;5005115;28;89932;-85
2023/08/03 06:06:17;;;;;;;82.00;53.20;;;18.90;87.90;;;;;;5007779;28;89115;-83
2023/08/03 06:08:49;;;;;;;82.07;52.45;;;18.90;86.90;;;;;;4986008;28;89969;-83
2023/08/03 06:11:17;;;;;;;82.43;53.30;;;18.90;86.80;;;;;;5004528;28;90744;-83
2023/08/03 06:13:44;;;;;;;83.03;52.72;;;18.90;87.10;;;;;;4984138;28;93057;-86
2023/08/03 06:16:11;;;;;;;80.40;52.17;;;18.90;86.90;;;;;;5007384;28;89718;-83
2023/08/03 06:18:48;;;;;;;80.38;52.47;;;18.80;86.90;;;;;;5007748;28;89379;-83
2023/08/03 06:21:16;;;;;;;80.72;52.42;;;18.80;86.90;;;;;;4983660;28;93349;-84
2023/08/03 06:23:45;;;;;;;81.53;52.30;;;18.90;87.00;;;;;;4998790;28;93066;-84
2023/08/03 06:26:12;;;;;;;80.47;51.88;;;18.80;86.60;;;;;;4986157;28;90240;-85
2023/08/03 06:28:38;;;;;;;80.18;52.17;;;18.90;86.60;;;;;;4997595;28;89502;-83
2023/08/03 06:31:31;;;;;;;80.57;52.33;;;18.90;86.60;;;;;;5003443;28;90740;-84
2023/08/03 06:33:57;;;;;;;82.93;52.65;;;18.90;87.00;;;;;;5005412;28;89767;-90
2023/08/03 06:36:27;;;;;;;80.88;52.08;;;18.90;88.30;;;;;;4987724;28;89097;-87
2023/08/03 06:38:53;;;;;;;80.55;52.40;;;18.90;88.60;;;;;;4984985;28;89295;-86
2023/08/03 06:41:19;;;;;;;83.18;52.70;;;18.80;89.10;;;;;;5002030;28;91462;-88
2023/08/03 06:43:46;;;;;;;83.07;53.15;;;18.90;90.30;;;;;;5008884;28;89341;-88
2023/08/03 06:46:12;;;;;;;85.25;52.88;;;18.90;88.50;;;;;;4992754;28;90589;-88
2023/08/03 06:48:38;;;;;;;83.55;52.67;;;18.90;89.10;;;;;;5006141;28;89569;-88
2023/08/03 06:51:04;;;;;;;81.07;52.38;;;18.90;90.00;;;;;;4981295;28;94499;-88
2023/08/03 06:53:33;;;;;;;84.35;52.58;;;18.90;89.00;;;;;;4981893;28;90452;-87
2023/08/03 06:55:58;;;;;;;84.00;52.53;;;18.90;88.50;;;;;;4983366;28;90665;-88
2023/08/03 06:58:24;;;;;;;82.30;52.53;;;18.90;88.70;;;;;;4982344;28;91398;-86
2023/08/03 07:00:50;;;;;;;82.38;52.22;;;18.90;88.50;;;;;;4975048;28;91696;-87
2023/08/03 07:03:16;;;;;;;82.43;52.53;;;19.00;88.80;;;;;;4979886;28;90866;-88
2023/08/03 07:05:43;;;;;;;84.05;52.67;;;19.00;88.70;;;;;;4996559;28;89407;-88
2023/08/03 07:08:09;;;;;;;84.97;52.67;;;19.00;88.30;;;;;;4999699;28;90049;-88
2023/08/03 07:10:36;;;;;;;84.65;52.35;;;19.10;89.00;;;;;;5000646;28;89325;-88
2023/08/03 07:13:02;;;;;;;83.03;53.00;;;19.10;88.10;;;;;;4980560;28;91962;-89
2023/08/03 07:15:33;;;;;;;84.43;52.85;;;19.10;87.70;;;;;;4999836;28;90860;-86
2023/08/03 07:17:59;;;;;;;81.60;52.30;;;19.10;87.40;;;;;;4988885;28;88683;-87
2023/08/03 07:20:25;;;;;;;85.10;53.08;;;19.20;87.70;;;;;;5002961;28;90112;-86
2023/08/03 07:22:51;;;;;;;84.75;52.67;;;19.20;88.40;;;;;;4989395;28;92765;-87
2023/08/03 07:25:16;;;;;;;82.57;52.63;;;19.30;87.80;;;;;;4986194;28;89350;-87
2023/08/03 07:27:44;;;;;;;85.65;53.22;;;19.40;87.40;;;;;;4987324;28;89917;-87
2023/08/03 07:30:10;;;;;;;86.30;52.85;;;19.40;86.30;;;;;;4986182;28;93197;-87
2023/08/03 07:32:35;;;;;;;82.28;52.50;;;19.30;87.50;;;;;;5003485;28;89430;-86
2023/08/03 07:35:02;;;;;;;81.10;52.55;;;19.20;87.50;;;;;;5002977;28;89498;-86
2023/08/03 07:37:27;;;;;;;83.68;52.97;;;19.20;87.80;;;;;;4997564;28;89089;-88
2023/08/03 07:39:53;;;;;;;83.70;53.13;;;19.30;88.00;;;;;;4980964;28;94174;-88
2023/08/03 07:42:19;;;;;;;86.18;52.80;;;19.30;87.50;;;;;;4982878;28;92814;-88
2023/08/03 07:44:44;;;;;;;83.13;53.08;;;19.30;87.90;;;;;;4983541;28;89514;-90
2023/08/03 07:47:10;;;;;;;84.25;52.80;;;19.30;87.70;;;;;;5004370;28;89172;-88
2023/08/03 07:49:35;;;;;;;82.25;52.92;;;19.30;88.60;;;;;;4985429;28;91610;-88
2023/08/03 07:52:01;;;;;;;85.30;53.42;;;19.30;88.70;;;;;;4982963;28;91214;-88
2023/08/03 07:54:27;;;;;;;84.15;53.00;;;19.30;87.10;;;;;;4981807;28;89194;-90
2023/08/03 07:56:52;;;;;;;84.60;53.10;;;19.30;88.70;;;;;;4983343;28;88444;-90
2023/08/03 07:59:18;;;;;;;84.22;53.08;;;19.20;87.90;;;;;;4985021;28;90822;-88
2023/08/03 08:01:45;;;;;;;83.80;53.35;;;19.40;88.60;;;;;;4984067;28;92154;-89
2023/08/03 08:04:10;;;;;;;87.97;53.63;;;19.40;87.90;;;;;;4985240;28;90163;-89
2023/08/03 08:06:36;;;;;;;88.05;53.70;;;19.50;87.10;;;;;;4986965;28;89103;-89
2023/08/03 08:09:02;;;;;;;84.65;53.50;;;19.60;85.90;;;;;;4981854;28;93121;-90
2023/08/03 08:11:28;;;;;;;86.25;54.03;;;19.70;84.90;;;;;;4997402;28;92286;-88
2023/08/03 08:13:57;;;;;;;84.40;53.58;;;19.70;84.80;;;;;;4980670;28;89254;-90
2023/08/03 08:16:23;;;;;;;82.88;53.47;;;19.80;84.80;;;;;;4985049;28;89169;-90
2023/08/03 08:18:48;;;;;;;84.18;53.67;;;19.80;84.80;;;;;;5002875;28;89406;-91
2023/08/03 08:21:14;;;;;;;86.50;53.42;;;20.00;84.20;;;;;;4987528;28;91279;-90
2023/08/03 08:23:40;;;;;;;86.00;54.00;;;20.00;83.90;;;;;;5004178;28;89468;-90
2023/08/03 08:26:25;;;;;;;86.90;53.78;;;19.90;84.00;;;;;;4989331;28;88834;-90
2023/08/03 08:28:56;;;;;;;88.43;53.95;;;20.00;83.40;;;;;;4995896;28;91671;-91
2023/08/03 08:31:22;;;;;;;87.05;54.33;;;20.00;82.80;;;;;;4998552;28;89725;-90
2023/08/03 08:33:48;;;;;;;87.78;54.00;;;20.10;85.00;;;;;;4983111;28;89089;-90
2023/08/03 08:36:13;;;;;;;87.28;53.80;;;20.10;83.30;;;;;;4985191;28;89066;-90
2023/08/03 08:38:39;;;;;;;85.47;53.65;;;20.10;82.00;;;;;;4983009;28;92625;-90
2023/08/03 08:41:05;;;;;;;84.63;53.45;;;20.20;82.60;;;;;;4983955;28;92514;-89
2023/08/03 08:43:31;;;;;;;86.32;53.65;;;20.10;81.80;;;;;;4984012;28;89585;-90
2023/08/03 08:45:57;;;;;;;88.18;54.03;;;20.10;81.40;;;;;;5002175;28;88733;-90
2023/08/03 08:48:23;;;;;;;88.60;53.60;;;20.20;80.10;;;;;;4988801;28;91592;-89
2023/08/03 08:50:49;;;;;;;88.18;53.78;;;20.10;80.50;;;;;;5009653;28;92676;-90
2023/08/03 08:53:15;;;;;;;85.05;53.42;;;20.10;80.60;;;;;;5024693;28;89776;-89
2023/08/03 08:55:41;;;;;;;86.03;53.38;;;20.20;78.10;;;;;;4998389;28;89400;-89
2023/08/03 08:58:06;;;;;;;84.72;53.47;;;20.30;75.70;;;;;;4989646;28;92552;-91
2023/08/03 09:00:45;;;;;;;86.07;53.72;;;20.40;76.20;;;;;;4985239;28;91568;-91
2023/08/03 09:03:12;;;;;;;89.35;53.75;;;20.50;75.20;;;;;;5002761;28;88665;-92
2023/08/03 09:05:39;;;;;;;86.20;53.60;;;20.50;73.10;;;;;;4990420;28;88873;-90
2023/08/03 09:08:09;;;;;;;86.57;53.80;;;20.50;73.20;;;;;;4984342;28;93203;-90
2023/08/03 09:10:53;;;;;;;90.13;54.28;;;20.60;71.60;;;;;;4985116;28;92791;-89
2023/08/03 09:13:28;;;;;;;88.28;53.72;;;20.60;71.00;;;;;;4987103;28;89302;-89
2023/08/03 09:15:55;;;;;;;87.28;53.90;;;20.60;73.40;;;;;;5003368;28;89275;-89
2023/08/03 09:18:21;;;;;;;88.07;53.75;;;20.70;71.20;;;;;;5005392;28;91229;-90
2023/08/03 09:20:47;;;;;;;90.00;53.78;;;20.70;71.60;;;;;;5011074;28;90540;-91
2023/08/03 09:23:27;;;;;;;87.22;53.90;;;20.60;71.10;;;;;;4984196;28;88702;-92
2023/08/03 09:25:53;;;;;;;92.22;54.22;;;20.70;71.60;;;;;;4987873;28;88903;-89
2023/08/03 09:28:18;;;;;;;90.75;54.25;;;20.90;71.80;;;;;;4985029;28;93211;-90
2023/08/03 09:30:49;;;;;;;89.00;53.78;;;20.90;70.30;;;;;;4984917;28;92164;-91
2023/08/03 09:33:15;;;;;;;;;;;20.70;69.40;;;;;;4962493;22;91836;-43
2023/08/03 09:35:41;;;;;;;86.00;53.70;;;20.70;71.00;;;;;;4942578;28;92837;-43
2023/08/03 09:38:23;;;;;;;87.93;54.15;;;20.80;70.40;;;;;;4945171;28;91655;-42
2023/08/03 09:40:50;;;;;;;88.78;53.60;;;20.90;68.40;;;;;;4938638;28;96067;-46
2023/08/03 09:43:17;;;;;;;86.70;54.25;;;21.00;69.70;;;;;;4936899;28;91168;-43
2023/08/03 09:45:46;;;;;;;87.68;54.22;;;21.20;70.50;;;;;;4941845;28;91530;-43
2023/08/03 09:48:12;;;;;;;90.30;54.15;;;21.20;70.90;;;;;;4932941;28;92230;-48
2023/08/03 09:50:40;;;;;;;88.75;54.15;;;21.20;70.10;;;;;;4942067;28;94778;-43
2023/08/03 09:53:10;;;;;;;92.15;54.05;;;21.20;70.80;;;;;;4932977;28;94285;-43
2023/08/03 09:55:45;;;;;;;89.40;53.90;;;21.20;69.80;;;;;;4934411;28;91376;-46
2023/08/03 09:58:16;;;;;;;89.53;54.15;;;21.20;70.40;;;;;;4940208;28;93234;-42
2023/08/03 10:00:45;;;;;;;90.07;54.38;;;21.40;67.40;;;;;;4941936;28;95555;-42
2023/08/03 10:03:18;;;;;;;88.53;53.88;;;21.50;68.90;;;;;;4940707;28;90586;-43
2023/08/03 10:05:51;;;;;;;89.88;54.25;;;21.30;66.10;;;;;;4938625;28;94005;-46
2023/08/03 10:08:17;;;;;;;87.13;53.80;;;21.30;67.90;;;;;;4940130;28;94923;-44
2023/08/03 10:10:49;;;;;;;89.82;54.25;;;21.30;68.80;;;;;;4940661;28;90123;-41
2023/08/03 10:13:15;;;;;;;89.25;54.00;;;21.30;69.90;;;;;;4945085;28;90013;-44
2023/08/03 10:15:41;;;;;;;87.85;54.28;;;21.40;70.20;;;;;;4953098;28;94652;-43
2023/08/03 10:18:07;;;;;;;86.97;54.15;;;21.60;70.90;;;;;;4952565;28;91674;-43
2023/08/03 10:20:34;;;;;;;91.38;54.38;;;21.60;66.60;;;;;;4947300;28;90214;-43
2023/08/03 10:23:11;;;;;;;87.10;53.97;;;21.60;66.70;;;;;;4951985;28;89932;-44
2023/08/03 10:26:03;;;;;;;89.70;53.92;;;21.40;69.00;;;;;;4945452;28;89187;-49
2023/08/03 10:28:40;;;;;;;87.70;53.63;;;21.30;68.10;;;;;;4944445;28;93566;-44
2023/08/03 10:31:18;;;;;;;91.68;53.78;;;21.20;68.40;;;;;;4942596;28;89771;-42
2023/08/03 10:33:47;;;;;;;87.15;53.83;;;21.10;68.10;;;;;;4944672;28;93745;-44
2023/08/03 10:36:28;;;;;;;89.78;54.10;;;21.10;68.00;;;;;;4945018;28;91772;-44
2023/08/03 10:38:57;;;;;;;93.00;54.30;;;21.30;68.70;;;;;;4938500;28;90469;-41
2023/08/03 10:41:36;;;;;;;89.35;54.10;;;21.60;69.30;;;;;;4948673;28;93168;-42
2023/08/03 10:44:13;;;;;;;88.70;54.03;;;21.80;68.00;;;;;;4942035;28;93461;-40
2023/08/03 10:46:41;;;;;;;87.88;53.97;;;21.80;67.60;;;;;;4947610;28;89991;-42
2023/08/03 10:49:22;;;;;;;89.20;53.95;;;21.60;65.60;;;;;;4949287;28;89817;-41
2023/08/03 10:51:52;;;;;;;86.57;53.42;;;21.50;65.80;;;;;;4942118;28;90462;-42
2023/08/03 10:54:21;;;;;;;86.38;53.63;;;21.40;68.80;;;;;;4939271;28;90295;-41
2023/08/03 10:57:08;;;;;;;87.68;53.45;;;21.30;69.00;;;;;;4945233;28;90204;-42
2023/08/03 10:59:41;;;;;;;86.63;53.47;;;21.30;70.90;;;;;;4943313;28;91659;-44
2023/08/03 11:02:10;;;;;;;86.05;53.33;;;21.40;69.20;;;;;;4943792;28;91023;-41
2023/08/03 11:04:36;;;;;;;87.38;53.80;;;21.30;67.90;;;;;;4947324;28;89623;-41
2023/08/03 11:07:06;;;;;;;86.80;53.97;;;21.50;69.50;;;;;;4947547;28;91154;-40
2023/08/03 11:09:32;;;;;;;91.50;54.33;;;21.70;66.50;;;;;;4941501;28;90265;-46
2023/08/03 11:12:00;;;;;;;88.38;54.03;;;21.60;66.60;;;;;;4948979;28;90095;-40
2023/08/03 11:14:28;;;;;;;89.22;54.05;;;21.70;65.60;;;;;;4946051;28;92662;-41
2023/08/03 11:16:53;;;;;;;88.30;53.90;;;21.60;67.40;;;;;;4945091;28;89774;-39
2023/08/03 11:19:21;;;;;;;86.28;53.53;;;21.70;68.20;;;;;;4946236;28;94028;-39
2023/08/03 11:21:46;;;;;;;87.10;53.55;;;21.50;65.40;;;;;;4944970;28;90045;-39
2023/08/03 11:24:12;;;;;;;85.95;53.67;;;21.60;66.70;;;;;;4941068;28;90685;-42
2023/08/03 11:26:38;;;;;;;85.38;53.63;;;21.50;65.00;;;;;;4951270;28;90508;-43
2023/08/03 11:29:06;;;;;;;90.18;54.22;;;21.70;65.90;;;;;;4946436;28;92516;-39
2023/08/03 11:31:32;;;;;;;88.28;54.13;;;21.90;65.80;;;;;;4940835;28;93263;-42
2023/08/03 11:33:58;;;;;;;88.72;54.15;;;22.00;65.50;;;;;;4947011;28;93196;-38
2023/08/03 11:36:24;;;;;;;86.97;53.65;;;21.80;65.80;;;;;;4947348;28;92750;-40
2023/08/03 11:38:51;;;;;;;87.68;53.70;;;21.70;66.00;;;;;;4946890;28;90069;-39
2023/08/03 11:41:23;;;;;;;90.25;54.28;;;21.70;65.00;;;;;;4944881;28;89905;-42
2023/08/03 11:43:49;;;;;;;88.95;54.28;;;21.80;64.80;;;;;;4945934;28;89926;-41
2023/08/03 11:46:15;;;;;;;88.90;54.05;;;21.80;64.50;;;;;;4946349;28;89415;-42
2023/08/03 11:48:45;;;;;;;87.07;53.78;;;21.90;65.40;;;;;;4941909;28;91650;-38
2023/08/03 11:51:11;;;;;;;89.13;54.15;;;21.80;64.40;;;;;;4944851;28;92647;-39
2023/08/03 11:53:40;;;;;;;87.40;53.95;;;21.80;65.60;;;;;;4946549;28;90341;-41
2023/08/03 11:56:10;;;;;;;87.65;54.13;;;21.90;67.10;;;;;;4944581;28;93584;-43
2023/08/03 11:58:36;;;;;;;85.72;53.70;;;22.00;66.20;;;;;;4942387;28;91192;-40
2023/08/03 12:01:04;;;;;;;86.75;53.80;;;22.20;64.80;;;;;;4944033;28;90817;-40
2023/08/03 12:03:33;;;;;;;87.72;54.22;;;21.90;63.20;;;;;;4946573;28;91262;-39
2023/08/03 12:06:05;;;;;;;90.07;53.78;;;21.90;65.70;;;;;;4951701;28;89909;-43
2023/08/03 12:08:40;;;;;;;86.28;54.15;;;22.00;66.10;;;;;;4947131;28;92486;-42
2023/08/03 12:11:06;;;;;;;88.53;53.85;;;22.00;64.60;;;;;;4943290;28;91883;-44
2023/08/03 12:13:32;;;;;;;87.47;53.95;;;22.10;64.40;;;;;;4943483;28;92678;-44
2023/08/03 12:15:57;;;;;;;86.55;54.10;;;22.00;65.10;;;;;;4935436;28;90842;-44
2023/08/03 12:18:24;;;;;;;87.05;53.95;;;22.00;64.70;;;;;;4932443;28;92675;-44
2023/08/03 12:20:50;;;;;;;86.28;53.90;;;22.10;65.30;;;;;;4921031;28;90552;-41
2023/08/03 12:23:19;;;;;;;86.25;54.00;;;21.90;65.60;;;;;;4911178;28;91056;-40
2023/08/03 12:25:45;;;;;;;88.72;53.90;;;22.00;66.80;;;;;;4920560;28;91543;-44
2023/08/03 12:28:11;;;;;;;87.32;53.75;;;22.10;66.10;;;;;;4912222;28;92382;-44